sensor_id;sensor_type;location;lat;lon;timestamp;noise_LAeq;noise_LA_min;noise_LA_max;noise_LA01;noise_LA95
57439;Laerm;43282;47.188;8.896;2023-04-24T00:02:20;38.98;35.04;45.51;;
57439;Laerm;43282;47.188;8.896;2023-04-24T00:04:45;38.98;35.66;41.46;;
57439;Laerm;43282;47.188;8.896;2023-04-24T00:07:11;39.76;34.69;42.53;;
57439;Laerm;43282;47.188;8.896;2023-04-24T00:09:38;40.18;36.45;46.25;;
57439;Laerm;43282;47.188;8.896;2023-04-24T00:12:03;40.40;35.66;44.83;;
57439;Laerm;43282;47.188;8.896;2023-04-24T00:14:30;40.39;34.69;44.43;;
57439;Laerm;43282;47.188;8.896;2023-04-24T00:16:55;39.97;35.36;48.76;;
57439;Laerm;43282;47.188;8.896;2023-04-24T00:19:20;42.13;35.04;50.98;;
57439;Laerm;43282;47.188;8.896;2023-04-24T00:21:46;41.45;35.66;51.22;;
57439;Laerm;43282;47.188;8.896;2023-04-24T00:24:15;42.87;36.45;53.73;;
57439;Laerm;43282;47.188;8.896;2023-04-24T00:26:40;38.96;34.69;45.07;;
57439;Laerm;43282;47.188;8.896;2023-04-24T00:29:05;47.33;34.31;62.97;;
57439;Laerm;43282;47.188;8.896;2023-04-24T00:31:31;39.64;34.69;50.07;;
57439;Laerm;43282;47.188;8.896;2023-04-24T00:34:00;41.15;36.91;48.78;;
57439;Laerm;43282;47.188;8.896;2023-04-24T00:36:25;39.64;36.20;42.03;;
57439;Laerm;43282;47.188;8.896;2023-04-24T00:38:52;40.19;35.94;44.80;;
57439;Laerm;43282;47.188;8.896;2023-04-24T00:41:18;41.84;35.94;53.61;;
57439;Laerm;43282;47.188;8.896;2023-04-24T00:43:43;49.88;37.70;67.25;;
57439;Laerm;43282;47.188;8.896;2023-04-24T00:46:09;41.41;35.94;46.28;;
57439;Laerm;43282;47.188;8.896;2023-04-24T00:48:35;41.01;37.12;45.57;;
57439;Laerm;43282;47.188;8.896;2023-04-24T00:51:01;48.16;36.34;65.40;;
57439;Laerm;43282;47.188;8.896;2023-04-24T00:53:26;40.95;35.36;48.48;;
57439;Laerm;43282;47.188;8.896;2023-04-24T00:55:51;41.47;36.69;47.93;;
57439;Laerm;43282;47.188;8.896;2023-04-24T00:58:17;42.70;38.81;53.06;;
57439;Laerm;43282;47.188;8.896;2023-04-24T01:00:42;42.16;39.21;52.72;;
57439;Laerm;43282;47.188;8.896;2023-04-24T01:03:08;42.53;39.08;48.73;;
57439;Laerm;43282;47.188;8.896;2023-04-24T01:05:36;41.66;39.21;47.28;;
57439;Laerm;43282;47.188;8.896;2023-04-24T01:08:01;42.70;39.70;55.57;;
57439;Laerm;43282;47.188;8.896;2023-04-24T01:10:26;50.73;42.06;65.28;;
57439;Laerm;43282;47.188;8.896;2023-04-24T01:12:52;48.63;42.29;66.26;;
57439;Laerm;43282;47.188;8.896;2023-04-24T01:15:18;46.07;41.53;58.36;;
57439;Laerm;43282;47.188;8.896;2023-04-24T01:17:43;47.87;43.09;62.98;;
57439;Laerm;43282;47.188;8.896;2023-04-24T01:20:08;47.73;41.75;57.85;;
57439;Laerm;43282;47.188;8.896;2023-04-24T01:22:34;53.36;40.43;69.32;;
57439;Laerm;43282;47.188;8.896;2023-04-24T01:25:00;44.23;39.81;55.91;;
57439;Laerm;43282;47.188;8.896;2023-04-24T01:27:25;43.13;38.81;55.75;;
57439;Laerm;43282;47.188;8.896;2023-04-24T01:29:50;49.38;38.81;65.26;;
57439;Laerm;43282;47.188;8.896;2023-04-24T01:32:17;51.58;40.27;69.05;;
57439;Laerm;43282;47.188;8.896;2023-04-24T01:34:42;45.95;39.58;57.94;;
57439;Laerm;43282;47.188;8.896;2023-04-24T01:37:08;43.77;39.70;53.22;;
57439;Laerm;43282;47.188;8.896;2023-04-24T01:39:33;51.25;39.58;68.19;;
57439;Laerm;43282;47.188;8.896;2023-04-24T01:41:59;43.15;39.08;57.25;;
57439;Laerm;43282;47.188;8.896;2023-04-24T01:44:25;48.61;40.89;56.85;;
57439;Laerm;43282;47.188;8.896;2023-04-24T01:46:51;43.50;35.36;59.13;;
57439;Laerm;43282;47.188;8.896;2023-04-24T01:49:16;46.12;37.32;58.18;;
57439;Laerm;43282;47.188;8.896;2023-04-24T01:51:42;43.89;36.91;59.96;;
57439;Laerm;43282;47.188;8.896;2023-04-24T01:54:07;46.04;37.32;59.08;;
57439;Laerm;43282;47.188;8.896;2023-04-24T01:56:33;47.52;36.91;62.18;;
57439;Laerm;43282;47.188;8.896;2023-04-24T01:58:58;42.74;35.36;54.41;;
57439;Laerm;43282;47.188;8.896;2023-04-24T02:01:24;44.35;39.21;63.00;;
57439;Laerm;43282;47.188;8.896;2023-04-24T02:03:50;46.51;40.13;57.87;;
57439;Laerm;43282;47.188;8.896;2023-04-24T02:06:16;46.01;40.23;58.92;;
57439;Laerm;43282;47.188;8.896;2023-04-24T02:08:41;50.38;37.70;65.76;;
57439;Laerm;43282;47.188;8.896;2023-04-24T02:11:08;46.75;37.70;66.94;;
57439;Laerm;43282;47.188;8.896;2023-04-24T02:13:33;48.39;38.81;67.13;;
57439;Laerm;43282;47.188;8.896;2023-04-24T02:15:58;49.37;41.38;63.45;;
57439;Laerm;43282;47.188;8.896;2023-04-24T02:18:24;46.01;38.05;58.55;;
57439;Laerm;43282;47.188;8.896;2023-04-24T02:20:49;49.88;40.43;64.81;;
57439;Laerm;43282;47.188;8.896;2023-04-24T02:23:15;50.33;40.80;65.39;;
57439;Laerm;43282;47.188;8.896;2023-04-24T02:25:40;44.93;40.43;56.99;;
57439;Laerm;43282;47.188;8.896;2023-04-24T02:28:06;48.42;40.80;58.58;;
57439;Laerm;43282;47.188;8.896;2023-04-24T02:30:31;51.14;40.98;67.10;;
57439;Laerm;43282;47.188;8.896;2023-04-24T02:32:56;48.99;41.38;64.26;;
57439;Laerm;43282;47.188;8.896;2023-04-24T02:35:22;45.03;41.06;53.23;;
57439;Laerm;43282;47.188;8.896;2023-04-24T02:37:47;53.61;40.23;70.37;;
57439;Laerm;43282;47.188;8.896;2023-04-24T02:40:12;50.29;40.13;67.57;;
57439;Laerm;43282;47.188;8.896;2023-04-24T02:42:38;47.71;39.70;65.66;;
57439;Laerm;43282;47.188;8.896;2023-04-24T02:45:03;49.93;38.05;67.74;;
57439;Laerm;43282;47.188;8.896;2023-04-24T02:47:28;55.04;41.46;70.20;;
57439;Laerm;43282;47.188;8.896;2023-04-24T02:49:54;54.33;40.89;67.67;;
57439;Laerm;43282;47.188;8.896;2023-04-24T02:52:19;44.77;40.13;52.53;;
57439;Laerm;43282;47.188;8.896;2023-04-24T02:54:44;55.23;39.81;72.31;;
57439;Laerm;43282;47.188;8.896;2023-04-24T02:57:10;46.00;39.70;63.70;;
57439;Laerm;43282;47.188;8.896;2023-04-24T02:59:36;43.46;39.46;49.50;;
57439;Laerm;43282;47.188;8.896;2023-04-24T03:02:01;48.37;41.82;61.83;;
57439;Laerm;43282;47.188;8.896;2023-04-24T03:04:26;55.45;40.80;69.00;;
57439;Laerm;43282;47.188;8.896;2023-04-24T03:06:52;54.20;41.96;69.48;;
57439;Laerm;43282;47.188;8.896;2023-04-24T03:09:23;44.51;41.53;50.46;;
57439;Laerm;43282;47.188;8.896;2023-04-24T03:11:48;48.52;41.82;63.87;;
57439;Laerm;43282;47.188;8.896;2023-04-24T03:14:14;58.55;41.53;76.87;;
57439;Laerm;43282;47.188;8.896;2023-04-24T03:16:39;54.79;41.38;69.62;;
57439;Laerm;43282;47.188;8.896;2023-04-24T03:19:06;54.54;43.09;72.41;;
57439;Laerm;43282;47.188;8.896;2023-04-24T03:21:31;54.31;43.14;68.44;;
57439;Laerm;43282;47.188;8.896;2023-04-24T03:23:57;55.84;41.89;72.54;;
57439;Laerm;43282;47.188;8.896;2023-04-24T03:26:22;53.06;40.71;69.51;;
57439;Laerm;43282;47.188;8.896;2023-04-24T03:28:47;55.49;40.33;69.77;;
57439;Laerm;43282;47.188;8.896;2023-04-24T03:31:12;51.68;41.38;64.72;;
57439;Laerm;43282;47.188;8.896;2023-04-24T03:33:38;55.32;42.98;68.57;;
57439;Laerm;43282;47.188;8.896;2023-04-24T03:36:03;55.57;44.39;68.33;;
57439;Laerm;43282;47.188;8.896;2023-04-24T03:38:30;56.10;44.80;68.28;;
57439;Laerm;43282;47.188;8.896;2023-04-24T03:40:59;58.45;46.15;70.92;;
57439;Laerm;43282;47.188;8.896;2023-04-24T03:43:25;57.86;46.55;73.09;;
57439;Laerm;43282;47.188;8.896;2023-04-24T03:45:52;58.02;45.01;68.39;;
57439;Laerm;43282;47.188;8.896;2023-04-24T03:48:21;58.00;44.90;69.70;;
57439;Laerm;43282;47.188;8.896;2023-04-24T03:50:47;56.04;45.42;70.76;;
57439;Laerm;43282;47.188;8.896;2023-04-24T03:53:12;59.08;49.50;73.42;;
57439;Laerm;43282;47.188;8.896;2023-04-24T03:55:38;59.94;46.71;73.71;;
57439;Laerm;43282;47.188;8.896;2023-04-24T03:58:03;58.16;46.07;69.54;;
57439;Laerm;43282;47.188;8.896;2023-04-24T04:00:28;58.64;47.74;71.07;;
57439;Laerm;43282;47.188;8.896;2023-04-24T04:02:56;59.15;48.52;72.25;;
57439;Laerm;43282;47.188;8.896;2023-04-24T04:05:23;61.10;50.19;72.93;;
57439;Laerm;43282;47.188;8.896;2023-04-24T04:07:48;61.02;51.62;71.33;;
57439;Laerm;43282;47.188;8.896;2023-04-24T04:10:13;60.15;47.44;71.54;;
57439;Laerm;43282;47.188;8.896;2023-04-24T04:12:39;59.64;50.77;70.94;;
57439;Laerm;43282;47.188;8.896;2023-04-24T04:15:04;60.88;50.04;71.41;;
57439;Laerm;43282;47.188;8.896;2023-04-24T04:17:31;61.12;50.07;70.56;;
57439;Laerm;43282;47.188;8.896;2023-04-24T04:19:57;60.59;48.75;71.67;;
57439;Laerm;43282;47.188;8.896;2023-04-24T04:22:22;59.96;52.00;71.63;;
57439;Laerm;43282;47.188;8.896;2023-04-24T04:24:47;62.53;53.55;71.52;;
57439;Laerm;43282;47.188;8.896;2023-04-24T04:27:13;61.17;52.84;71.47;;
57439;Laerm;43282;47.188;8.896;2023-04-24T04:29:38;61.85;52.59;71.62;;
57439;Laerm;43282;47.188;8.896;2023-04-24T04:32:05;62.23;53.00;72.04;;
57439;Laerm;43282;47.188;8.896;2023-04-24T04:34:31;61.85;51.90;73.14;;
57439;Laerm;43282;47.188;8.896;2023-04-24T04:36:56;61.98;52.75;72.34;;
57439;Laerm;43282;47.188;8.896;2023-04-24T04:39:24;63.07;54.52;73.61;;
57439;Laerm;43282;47.188;8.896;2023-04-24T04:41:50;62.99;54.48;71.39;;
57439;Laerm;43282;47.188;8.896;2023-04-24T04:44:16;65.48;55.63;79.86;;
57439;Laerm;43282;47.188;8.896;2023-04-24T04:46:41;63.81;55.88;74.21;;
57439;Laerm;43282;47.188;8.896;2023-04-24T04:49:07;61.88;53.76;72.03;;
57439;Laerm;43282;47.188;8.896;2023-04-24T04:51:33;60.52;51.03;70.38;;
57439;Laerm;43282;47.188;8.896;2023-04-24T04:53:59;60.79;52.37;68.54;;
57439;Laerm;43282;47.188;8.896;2023-04-24T04:56:24;60.71;51.52;69.44;;
57439;Laerm;43282;47.188;8.896;2023-04-24T04:58:49;61.35;52.80;71.12;;
57439;Laerm;43282;47.188;8.896;2023-04-24T05:01:15;61.14;51.26;73.12;;
57439;Laerm;43282;47.188;8.896;2023-04-24T05:03:40;60.18;50.35;70.66;;
57439;Laerm;43282;47.188;8.896;2023-04-24T05:06:06;62.04;49.11;75.35;;
57439;Laerm;43282;47.188;8.896;2023-04-24T05:08:31;61.20;47.93;72.54;;
57439;Laerm;43282;47.188;8.896;2023-04-24T05:10:57;57.01;46.76;67.69;;
57439;Laerm;43282;47.188;8.896;2023-04-24T05:13:22;59.58;46.23;70.94;;
57439;Laerm;43282;47.188;8.896;2023-04-24T05:15:47;59.56;45.94;69.33;;
57439;Laerm;43282;47.188;8.896;2023-04-24T05:18:12;61.09;45.72;74.60;;
57439;Laerm;43282;47.188;8.896;2023-04-24T05:20:38;58.66;45.86;72.63;;
57439;Laerm;43282;47.188;8.896;2023-04-24T05:23:03;59.33;44.62;68.73;;
57439;Laerm;43282;47.188;8.896;2023-04-24T05:25:28;60.12;46.71;71.99;;
57439;Laerm;43282;47.188;8.896;2023-04-24T05:27:53;59.92;47.52;81.69;;
57439;Laerm;43282;47.188;8.896;2023-04-24T05:30:19;60.43;45.30;78.54;;
57439;Laerm;43282;47.188;8.896;2023-04-24T05:32:44;58.96;43.90;76.67;;
57439;Laerm;43282;47.188;8.896;2023-04-24T05:35:10;61.28;45.30;78.18;;
57439;Laerm;43282;47.188;8.896;2023-04-24T05:37:35;55.41;43.04;71.09;;
57439;Laerm;43282;47.188;8.896;2023-04-24T05:40:00;58.68;44.43;74.23;;
57439;Laerm;43282;47.188;8.896;2023-04-24T05:42:25;64.13;46.28;78.96;;
57439;Laerm;43282;47.188;8.896;2023-04-24T05:44:51;58.09;45.11;67.78;;
57439;Laerm;43282;47.188;8.896;2023-04-24T05:47:16;61.15;46.66;82.93;;
57439;Laerm;43282;47.188;8.896;2023-04-24T05:49:44;59.37;47.44;71.92;;
57439;Laerm;43282;47.188;8.896;2023-04-24T05:52:09;60.95;49.84;74.16;;
57439;Laerm;43282;47.188;8.896;2023-04-24T05:54:35;59.19;47.79;69.93;;
57439;Laerm;43282;47.188;8.896;2023-04-24T05:57:00;64.08;50.59;78.51;;
57439;Laerm;43282;47.188;8.896;2023-04-24T05:59:29;57.96;49.42;69.68;;
57439;Laerm;43282;47.188;8.896;2023-04-24T06:01:54;60.57;50.59;69.39;;
57439;Laerm;43282;47.188;8.896;2023-04-24T06:04:20;61.36;51.11;73.14;;
57439;Laerm;43282;47.188;8.896;2023-04-24T06:06:45;61.02;52.76;71.20;;
57439;Laerm;43282;47.188;8.896;2023-04-24T06:09:10;62.19;50.11;73.89;;
57439;Laerm;43282;47.188;8.896;2023-04-24T06:11:37;64.91;51.07;78.44;;
57439;Laerm;43282;47.188;8.896;2023-04-24T06:14:02;62.35;52.11;74.95;;
57439;Laerm;43282;47.188;8.896;2023-04-24T06:16:27;62.53;50.94;75.13;;
57439;Laerm;43282;47.188;8.896;2023-04-24T06:18:53;62.29;49.97;74.38;;
57439;Laerm;43282;47.188;8.896;2023-04-24T06:21:18;61.76;48.23;77.04;;
57439;Laerm;43282;47.188;8.896;2023-04-24T06:23:44;61.00;48.70;74.08;;
57439;Laerm;43282;47.188;8.896;2023-04-24T06:26:11;61.77;46.82;74.36;;
57439;Laerm;43282;47.188;8.896;2023-04-24T06:28:36;63.51;48.73;77.05;;
57439;Laerm;43282;47.188;8.896;2023-04-24T06:31:02;61.99;48.57;76.52;;
57439;Laerm;43282;47.188;8.896;2023-04-24T06:33:27;63.45;50.11;77.13;;
57439;Laerm;43282;47.188;8.896;2023-04-24T06:35:53;61.50;51.36;70.88;;
57439;Laerm;43282;47.188;8.896;2023-04-24T06:38:18;62.23;51.62;74.76;;
57439;Laerm;43282;47.188;8.896;2023-04-24T06:40:44;62.33;51.02;75.78;;
57439;Laerm;43282;47.188;8.896;2023-04-24T06:43:10;61.94;52.36;70.45;;
57439;Laerm;43282;47.188;8.896;2023-04-24T06:45:36;61.11;51.77;70.83;;
57439;Laerm;43282;47.188;8.896;2023-04-24T06:48:04;62.73;52.51;75.28;;
57439;Laerm;43282;47.188;8.896;2023-04-24T06:50:29;61.53;50.41;73.99;;
57439;Laerm;43282;47.188;8.896;2023-04-24T06:52:54;58.17;49.35;70.02;;
57439;Laerm;43282;47.188;8.896;2023-04-24T06:55:19;59.34;48.64;69.99;;
57439;Laerm;43282;47.188;8.896;2023-04-24T06:57:45;61.17;50.23;76.61;;
57439;Laerm;43282;47.188;8.896;2023-04-24T07:00:10;60.81;48.71;73.72;;
57439;Laerm;43282;47.188;8.896;2023-04-24T07:02:36;59.25;47.19;71.26;;
57439;Laerm;43282;47.188;8.896;2023-04-24T07:05:02;59.35;49.73;71.14;;
57439;Laerm;43282;47.188;8.896;2023-04-24T07:07:28;61.69;47.76;75.59;;
57439;Laerm;43282;47.188;8.896;2023-04-24T07:09:53;58.57;49.29;78.09;;
57439;Laerm;43282;47.188;8.896;2023-04-24T07:12:19;59.42;51.31;68.79;;
57439;Laerm;43282;47.188;8.896;2023-04-24T07:14:47;58.67;49.12;72.45;;
57439;Laerm;43282;47.188;8.896;2023-04-24T07:17:13;58.70;49.12;68.20;;
57439;Laerm;43282;47.188;8.896;2023-04-24T07:19:38;59.60;48.70;78.10;;
57439;Laerm;43282;47.188;8.896;2023-04-24T07:22:03;56.68;47.76;67.41;;
57439;Laerm;43282;47.188;8.896;2023-04-24T07:24:29;60.74;48.88;70.34;;
57439;Laerm;43282;47.188;8.896;2023-04-24T07:26:54;62.22;48.57;76.47;;
57439;Laerm;43282;47.188;8.896;2023-04-24T07:29:20;58.51;47.59;70.70;;
57439;Laerm;43282;47.188;8.896;2023-04-24T07:31:46;60.70;50.98;70.36;;
57439;Laerm;43282;47.188;8.896;2023-04-24T07:34:11;61.33;51.46;74.21;;
57439;Laerm;43282;47.188;8.896;2023-04-24T07:36:36;59.06;49.88;73.15;;
57439;Laerm;43282;47.188;8.896;2023-04-24T07:39:04;62.72;51.07;78.98;;
57439;Laerm;43282;47.188;8.896;2023-04-24T07:41:30;61.50;50.07;80.32;;
57439;Laerm;43282;47.188;8.896;2023-04-24T07:43:55;60.48;48.97;75.48;;
57439;Laerm;43282;47.188;8.896;2023-04-24T07:46:20;61.26;52.56;75.76;;
57439;Laerm;43282;47.188;8.896;2023-04-24T07:48:46;61.41;52.95;73.47;;
57439;Laerm;43282;47.188;8.896;2023-04-24T07:51:14;67.47;57.50;85.40;;
57439;Laerm;43282;47.188;8.896;2023-04-24T07:53:39;67.87;57.47;84.06;;
57439;Laerm;43282;47.188;8.896;2023-04-24T07:56:05;64.87;54.33;82.70;;
57439;Laerm;43282;47.188;8.896;2023-04-24T07:58:30;63.68;51.22;78.93;;
57439;Laerm;43282;47.188;8.896;2023-04-24T08:00:56;61.61;50.70;78.21;;
57439;Laerm;43282;47.188;8.896;2023-04-24T08:03:21;62.66;51.26;74.12;;
57439;Laerm;43282;47.188;8.896;2023-04-24T08:05:46;60.34;49.81;69.41;;
57439;Laerm;43282;47.188;8.896;2023-04-24T08:08:12;63.24;47.76;78.19;;
57439;Laerm;43282;47.188;8.896;2023-04-24T08:10:37;63.33;49.98;75.29;;
57439;Laerm;43282;47.188;8.896;2023-04-24T08:13:02;60.83;48.90;69.26;;
57439;Laerm;43282;47.188;8.896;2023-04-24T08:15:28;60.56;46.71;70.79;;
57439;Laerm;43282;47.188;8.896;2023-04-24T08:17:53;59.89;46.84;69.52;;
57439;Laerm;43282;47.188;8.896;2023-04-24T08:20:18;63.21;48.49;76.55;;
57439;Laerm;43282;47.188;8.896;2023-04-24T08:22:44;58.63;50.21;68.37;;
57439;Laerm;43282;47.188;8.896;2023-04-24T08:25:12;61.74;48.16;73.61;;
57439;Laerm;43282;47.188;8.896;2023-04-24T08:27:37;60.55;49.35;72.65;;
57439;Laerm;43282;47.188;8.896;2023-04-24T08:30:04;59.91;47.65;69.03;;
57439;Laerm;43282;47.188;8.896;2023-04-24T08:32:30;60.81;48.71;74.32;;
57439;Laerm;43282;47.188;8.896;2023-04-24T08:34:56;62.82;48.81;74.46;;
57439;Laerm;43282;47.188;8.896;2023-04-24T08:37:25;58.22;44.39;70.35;;
57439;Laerm;43282;47.188;8.896;2023-04-24T08:39:51;61.56;47.20;77.15;;
57439;Laerm;43282;47.188;8.896;2023-04-24T08:42:17;58.30;46.66;72.56;;
57439;Laerm;43282;47.188;8.896;2023-04-24T08:44:43;58.61;47.83;68.72;;
57439;Laerm;43282;47.188;8.896;2023-04-24T08:47:09;61.70;48.64;78.20;;
57439;Laerm;43282;47.188;8.896;2023-04-24T08:49:35;58.87;48.58;72.38;;
57439;Laerm;43282;47.188;8.896;2023-04-24T08:52:01;61.49;47.79;75.14;;
57439;Laerm;43282;47.188;8.896;2023-04-24T08:54:27;60.59;48.37;75.84;;
57439;Laerm;43282;47.188;8.896;2023-04-24T08:56:53;63.11;48.67;81.07;;
57439;Laerm;43282;47.188;8.896;2023-04-24T08:59:19;57.12;47.67;68.99;;
57439;Laerm;43282;47.188;8.896;2023-04-24T09:01:45;58.30;49.15;67.98;;
57439;Laerm;43282;47.188;8.896;2023-04-24T09:04:10;65.56;49.15;80.33;;
57439;Laerm;43282;47.188;8.896;2023-04-24T09:06:38;60.30;46.38;73.59;;
57439;Laerm;43282;47.188;8.896;2023-04-24T09:09:04;57.49;48.25;71.20;;
57439;Laerm;43282;47.188;8.896;2023-04-24T09:11:31;59.18;47.77;81.27;;
57439;Laerm;43282;47.188;8.896;2023-04-24T09:13:57;63.34;54.80;87.76;;
57439;Laerm;43282;47.188;8.896;2023-04-24T09:16:23;61.37;53.56;79.20;;
57439;Laerm;43282;47.188;8.896;2023-04-24T09:18:49;63.30;54.26;82.90;;
57439;Laerm;43282;47.188;8.896;2023-04-24T09:21:15;59.64;52.95;71.72;;
57439;Laerm;43282;47.188;8.896;2023-04-24T09:23:40;61.25;51.68;74.23;;
57439;Laerm;43282;47.188;8.896;2023-04-24T09:26:06;59.11;52.67;68.50;;
57439;Laerm;43282;47.188;8.896;2023-04-24T09:28:37;62.58;52.58;82.67;;
57439;Laerm;43282;47.188;8.896;2023-04-24T09:33:28;60.38;49.80;81.01;;
57439;Laerm;43282;47.188;8.896;2023-04-24T09:35:54;60.29;50.32;75.66;;
57439;Laerm;43282;47.188;8.896;2023-04-24T09:38:20;59.09;50.83;78.07;;
57439;Laerm;43282;47.188;8.896;2023-04-24T09:40:55;61.58;52.34;85.68;;
57439;Laerm;43282;47.188;8.896;2023-04-24T09:43:20;60.41;52.96;70.25;;
57439;Laerm;43282;47.188;8.896;2023-04-24T09:45:46;62.64;53.39;74.71;;
57439;Laerm;43282;47.188;8.896;2023-04-24T09:48:17;62.46;52.15;75.39;;
57439;Laerm;43282;47.188;8.896;2023-04-24T09:50:45;64.27;49.71;74.83;;
57439;Laerm;43282;47.188;8.896;2023-04-24T09:53:11;63.96;53.13;71.17;;
57439;Laerm;43282;47.188;8.896;2023-04-24T09:55:39;63.22;47.57;74.04;;
57439;Laerm;43282;47.188;8.896;2023-04-24T09:58:07;60.09;46.52;68.99;;
57439;Laerm;43282;47.188;8.896;2023-04-24T10:00:33;63.53;48.43;76.75;;
57439;Laerm;43282;47.188;8.896;2023-04-24T10:02:59;63.54;46.28;75.46;;
57439;Laerm;43282;47.188;8.896;2023-04-24T10:07:56;62.65;45.39;71.48;;
57439;Laerm;43282;47.188;8.896;2023-04-24T10:10:21;62.50;45.97;71.28;;
57439;Laerm;43282;47.188;8.896;2023-04-24T10:12:47;62.37;46.66;72.89;;
57439;Laerm;43282;47.188;8.896;2023-04-24T10:15:12;61.58;46.20;74.16;;
57439;Laerm;43282;47.188;8.896;2023-04-24T10:17:39;59.83;44.11;73.13;;
57439;Laerm;43282;47.188;8.896;2023-04-24T10:20:04;59.85;45.07;69.81;;
57439;Laerm;43282;47.188;8.896;2023-04-24T10:22:32;60.22;44.97;74.08;;
57439;Laerm;43282;47.188;8.896;2023-04-24T10:24:57;59.81;44.65;72.78;;
57439;Laerm;43282;47.188;8.896;2023-04-24T10:27:23;57.49;43.94;71.90;;
57439;Laerm;43282;47.188;8.896;2023-04-24T10:29:51;60.42;44.39;73.25;;
57439;Laerm;43282;47.188;8.896;2023-04-24T10:32:18;58.51;44.43;71.68;;
57439;Laerm;43282;47.188;8.896;2023-04-24T10:34:43;62.07;45.14;73.26;;
57439;Laerm;43282;47.188;8.896;2023-04-24T10:37:09;60.07;44.51;73.30;;
57439;Laerm;43282;47.188;8.896;2023-04-24T10:39:34;58.34;44.31;71.90;;
57439;Laerm;43282;47.188;8.896;2023-04-24T10:42:00;58.79;44.08;70.79;;
57439;Laerm;43282;47.188;8.896;2023-04-24T10:44:27;60.50;44.31;74.84;;
57439;Laerm;43282;47.188;8.896;2023-04-24T10:47:00;57.56;43.24;68.33;;
57439;Laerm;43282;47.188;8.896;2023-04-24T10:49:29;60.85;44.76;72.81;;
57439;Laerm;43282;47.188;8.896;2023-04-24T10:51:59;60.01;45.45;68.89;;
57439;Laerm;43282;47.188;8.896;2023-04-24T10:54:26;59.25;44.07;70.45;;
57439;Laerm;43282;47.188;8.896;2023-04-24T10:56:51;59.76;44.90;69.51;;
57439;Laerm;43282;47.188;8.896;2023-04-24T10:59:25;63.64;44.11;82.06;;
57439;Laerm;43282;47.188;8.896;2023-04-24T11:01:53;61.99;45.39;75.65;;
57439;Laerm;43282;47.188;8.896;2023-04-24T11:04:30;65.95;58.86;74.58;;
57439;Laerm;43282;47.188;8.896;2023-04-24T11:06:56;66.41;52.01;77.45;;
57439;Laerm;43282;47.188;8.896;2023-04-24T11:09:22;61.86;49.65;69.13;;
57439;Laerm;43282;47.188;8.896;2023-04-24T11:11:47;62.84;47.40;73.75;;
57439;Laerm;43282;47.188;8.896;2023-04-24T11:14:15;61.45;46.91;70.72;;
57439;Laerm;43282;47.188;8.896;2023-04-24T11:19:07;63.71;49.24;74.41;;
57439;Laerm;43282;47.188;8.896;2023-04-24T11:24:25;62.65;46.80;75.59;;
57439;Laerm;43282;47.188;8.896;2023-04-24T11:26:53;61.55;47.70;75.36;;
57439;Laerm;43282;47.188;8.896;2023-04-24T11:29:19;62.03;50.94;74.42;;
57439;Laerm;43282;47.188;8.896;2023-04-24T11:31:44;59.63;49.12;71.33;;
57439;Laerm;43282;47.188;8.896;2023-04-24T11:34:22;61.88;51.91;76.42;;
57439;Laerm;43282;47.188;8.896;2023-04-24T11:36:50;61.22;50.30;72.03;;
57439;Laerm;43282;47.188;8.896;2023-04-24T11:39:16;58.52;47.42;70.37;;
57439;Laerm;43282;47.188;8.896;2023-04-24T11:41:41;60.33;46.48;73.16;;
57439;Laerm;43282;47.188;8.896;2023-04-24T11:44:07;60.24;48.85;73.76;;
57439;Laerm;43282;47.188;8.896;2023-04-24T11:46:33;62.87;51.17;73.20;;
57439;Laerm;43282;47.188;8.896;2023-04-24T11:49:04;61.15;51.64;74.59;;
57439;Laerm;43282;47.188;8.896;2023-04-24T11:51:31;58.16;46.95;68.42;;
57439;Laerm;43282;47.188;8.896;2023-04-24T11:53:57;58.89;47.61;69.38;;
57439;Laerm;43282;47.188;8.896;2023-04-24T11:56:23;60.96;47.83;74.59;;
57439;Laerm;43282;47.188;8.896;2023-04-24T11:58:51;65.28;47.02;79.47;;
57439;Laerm;43282;47.188;8.896;2023-04-24T12:01:17;56.72;44.90;68.83;;
57439;Laerm;43282;47.188;8.896;2023-04-24T12:03:47;61.31;45.04;76.46;;
57439;Laerm;43282;47.188;8.896;2023-04-24T12:06:12;58.02;45.63;78.41;;
57439;Laerm;43282;47.188;8.896;2023-04-24T12:08:37;60.32;43.86;75.49;;
57439;Laerm;43282;47.188;8.896;2023-04-24T12:11:04;57.14;42.88;69.53;;
57439;Laerm;43282;47.188;8.896;2023-04-24T12:13:30;55.56;44.43;62.81;;
57439;Laerm;43282;47.188;8.896;2023-04-24T12:15:57;58.05;45.46;69.18;;
57439;Laerm;43282;47.188;8.896;2023-04-24T12:18:22;56.37;43.54;66.95;;
57439;Laerm;43282;47.188;8.896;2023-04-24T12:20:53;54.02;43.19;65.91;;
57439;Laerm;43282;47.188;8.896;2023-04-24T12:23:33;56.00;44.58;65.45;;
57439;Laerm;43282;47.188;8.896;2023-04-24T12:26:00;58.49;42.82;74.71;;
57439;Laerm;43282;47.188;8.896;2023-04-24T12:28:34;56.93;43.99;68.74;;
57439;Laerm;43282;47.188;8.896;2023-04-24T12:30:59;55.47;44.03;65.94;;
57439;Laerm;43282;47.188;8.896;2023-04-24T12:33:33;57.24;42.93;72.49;;
57439;Laerm;43282;47.188;8.896;2023-04-24T12:36:00;52.62;43.09;68.40;;
57439;Laerm;43282;47.188;8.896;2023-04-24T12:38:26;57.61;44.43;72.80;;
57439;Laerm;43282;47.188;8.896;2023-04-24T12:41:04;53.19;42.88;64.79;;
57439;Laerm;43282;47.188;8.896;2023-04-24T12:43:30;59.71;44.35;74.48;;
57439;Laerm;43282;47.188;8.896;2023-04-24T12:45:56;55.27;44.73;68.42;;
57439;Laerm;43282;47.188;8.896;2023-04-24T12:48:25;56.85;46.05;68.54;;
57439;Laerm;43282;47.188;8.896;2023-04-24T12:50:51;57.07;47.84;64.77;;
57439;Laerm;43282;47.188;8.896;2023-04-24T12:53:16;59.32;47.63;72.86;;
57439;Laerm;43282;47.188;8.896;2023-04-24T12:55:41;59.82;47.26;79.76;;
57439;Laerm;43282;47.188;8.896;2023-04-24T12:58:07;57.93;46.25;69.92;;
57439;Laerm;43282;47.188;8.896;2023-04-24T13:00:32;60.16;47.44;79.32;;
57439;Laerm;43282;47.188;8.896;2023-04-24T13:02:58;56.07;46.33;64.69;;
57439;Laerm;43282;47.188;8.896;2023-04-24T13:05:23;58.28;45.94;74.84;;
57439;Laerm;43282;47.188;8.896;2023-04-24T13:07:48;56.51;44.62;66.92;;
57439;Laerm;43282;47.188;8.896;2023-04-24T13:10:13;59.43;43.90;74.46;;
57439;Laerm;43282;47.188;8.896;2023-04-24T13:12:39;63.99;45.17;85.95;;
57439;Laerm;43282;47.188;8.896;2023-04-24T13:15:06;57.94;45.07;77.43;;
57439;Laerm;43282;47.188;8.896;2023-04-24T13:17:31;58.52;44.27;75.99;;
57439;Laerm;43282;47.188;8.896;2023-04-24T13:19:57;57.19;43.58;70.76;;
57439;Laerm;43282;47.188;8.896;2023-04-24T13:22:22;58.66;43.34;74.42;;
57439;Laerm;43282;47.188;8.896;2023-04-24T13:24:48;56.37;43.63;77.19;;
57439;Laerm;43282;47.188;8.896;2023-04-24T13:27:16;55.96;43.63;67.01;;
57439;Laerm;43282;47.188;8.896;2023-04-24T13:29:41;60.98;43.72;79.19;;
57439;Laerm;43282;47.188;8.896;2023-04-24T13:32:07;55.02;44.31;66.13;;
57439;Laerm;43282;47.188;8.896;2023-04-24T13:34:33;57.84;45.11;72.63;;
57439;Laerm;43282;47.188;8.896;2023-04-24T13:36:59;61.31;45.45;80.63;;
57439;Laerm;43282;47.188;8.896;2023-04-24T13:39:25;59.46;45.77;74.23;;
57439;Laerm;43282;47.188;8.896;2023-04-24T13:41:51;56.67;46.75;66.38;;
57439;Laerm;43282;47.188;8.896;2023-04-24T13:44:16;54.17;44.27;69.74;;
57439;Laerm;43282;47.188;8.896;2023-04-24T13:46:42;55.41;45.45;63.96;;
57439;Laerm;43282;47.188;8.896;2023-04-24T13:49:16;56.60;46.87;69.74;;